Terminal Aerodrome Forecast
Issued by NWS Bismarck, ND

Home | Current Version | Previous Version | Graphics & Text | Print | Product List | Glossary On
Versions: 1 2 3 4 5 6 7 8 9 10 11 12 13 14 15 16 17 18 19 20
000
FTUS43 KBIS 151737
TAFISN
TAF
KISN 151737Z 1518/1618 VRB04KT P6SM SCT013 BKN180
     FM151900 07005KT P6SM BKN070 BKN150
     FM160300 VRB02KT P6SM SCT070 SCT250
     FM161100 VRB02KT P6SM FEW015
     FM161400 00000KT P6SM SKC=

USA.gov is the U.S. government's official web portal to all federal, state and local government web resources and services.